sensor_id;sensor_type;location;lat;lon;timestamp;temperature;humidity
10171;DHT22;5127;50.922;6.988;2024-02-16T00:00:12;15.80;78.80
10171;DHT22;5127;50.922;6.988;2024-02-16T00:02:40;15.80;79.00
10171;DHT22;5127;50.922;6.988;2024-02-16T00:05:08;15.80;79.00
10171;DHT22;5127;50.922;6.988;2024-02-16T00:07:37;15.80;78.90
10171;DHT22;5127;50.922;6.988;2024-02-16T00:10:07;15.90;78.90
10171;DHT22;5127;50.922;6.988;2024-02-16T00:12:35;15.90;78.60
10171;DHT22;5127;50.922;6.988;2024-02-16T00:15:03;15.90;79.00
10171;DHT22;5127;50.922;6.988;2024-02-16T00:17:31;15.80;78.80
10171;DHT22;5127;50.922;6.988;2024-02-16T00:19:59;15.80;78.90
10171;DHT22;5127;50.922;6.988;2024-02-16T00:22:27;15.80;78.70
10171;DHT22;5127;50.922;6.988;2024-02-16T00:24:54;15.80;79.00
10171;DHT22;5127;50.922;6.988;2024-02-16T00:27:22;15.80;78.90
10171;DHT22;5127;50.922;6.988;2024-02-16T00:29:50;15.80;78.60
10171;DHT22;5127;50.922;6.988;2024-02-16T00:32:17;15.80;78.80
10171;DHT22;5127;50.922;6.988;2024-02-16T00:34:45;15.80;79.00
10171;DHT22;5127;50.922;6.988;2024-02-16T00:37:12;15.90;79.10
10171;DHT22;5127;50.922;6.988;2024-02-16T00:39:40;15.80;79.00
10171;DHT22;5127;50.922;6.988;2024-02-16T00:42:07;15.80;78.80
10171;DHT22;5127;50.922;6.988;2024-02-16T00:44:36;15.80;78.90
10171;DHT22;5127;50.922;6.988;2024-02-16T00:47:03;15.80;78.60
10171;DHT22;5127;50.922;6.988;2024-02-16T00:49:31;15.80;79.00
10171;DHT22;5127;50.922;6.988;2024-02-16T00:51:59;15.80;79.10
10171;DHT22;5127;50.922;6.988;2024-02-16T00:54:27;15.80;79.10
10171;DHT22;5127;50.922;6.988;2024-02-16T00:56:54;15.80;79.10
10171;DHT22;5127;50.922;6.988;2024-02-16T00:59:27;15.80;79.00
10171;DHT22;5127;50.922;6.988;2024-02-16T01:01:55;15.80;79.10
10171;DHT22;5127;50.922;6.988;2024-02-16T01:04:23;15.80;78.70
10171;DHT22;5127;50.922;6.988;2024-02-16T01:06:50;15.80;79.00
10171;DHT22;5127;50.922;6.988;2024-02-16T01:09:17;15.70;78.80
10171;DHT22;5127;50.922;6.988;2024-02-16T01:11:44;15.80;79.00
10171;DHT22;5127;50.922;6.988;2024-02-16T01:14:12;15.80;79.00
10171;DHT22;5127;50.922;6.988;2024-02-16T01:16:39;15.80;78.90
10171;DHT22;5127;50.922;6.988;2024-02-16T01:19:07;15.80;79.00
10171;DHT22;5127;50.922;6.988;2024-02-16T01:21:35;15.70;78.60
10171;DHT22;5127;50.922;6.988;2024-02-16T01:24:03;15.80;79.00
10171;DHT22;5127;50.922;6.988;2024-02-16T01:26:31;15.80;79.00
10171;DHT22;5127;50.922;6.988;2024-02-16T01:28:59;15.70;78.80
10171;DHT22;5127;50.922;6.988;2024-02-16T01:31:28;15.80;78.90
10171;DHT22;5127;50.922;6.988;2024-02-16T01:33:55;15.70;78.90
10171;DHT22;5127;50.922;6.988;2024-02-16T01:36:24;15.80;79.00
10171;DHT22;5127;50.922;6.988;2024-02-16T01:38:51;15.80;78.80
10171;DHT22;5127;50.922;6.988;2024-02-16T01:41:18;15.80;79.00
10171;DHT22;5127;50.922;6.988;2024-02-16T01:43:46;15.70;79.00
10171;DHT22;5127;50.922;6.988;2024-02-16T01:46:13;15.80;79.00
10171;DHT22;5127;50.922;6.988;2024-02-16T01:48:40;15.80;79.00
10171;DHT22;5127;50.922;6.988;2024-02-16T01:51:08;15.80;79.10
10171;DHT22;5127;50.922;6.988;2024-02-16T01:53:38;15.80;78.90
10171;DHT22;5127;50.922;6.988;2024-02-16T01:56:06;15.80;78.60
10171;DHT22;5127;50.922;6.988;2024-02-16T01:58:33;15.80;78.90
10171;DHT22;5127;50.922;6.988;2024-02-16T02:01:01;15.80;79.10
10171;DHT22;5127;50.922;6.988;2024-02-16T02:03:28;15.80;79.00
10171;DHT22;5127;50.922;6.988;2024-02-16T02:05:56;15.80;79.00
10171;DHT22;5127;50.922;6.988;2024-02-16T02:08:25;15.80;79.10
10171;DHT22;5127;50.922;6.988;2024-02-16T02:10:53;15.90;79.10
10171;DHT22;5127;50.922;6.988;2024-02-16T02:13:21;15.80;78.90
10171;DHT22;5127;50.922;6.988;2024-02-16T02:15:48;15.80;79.00
10171;DHT22;5127;50.922;6.988;2024-02-16T02:18:15;15.90;78.90
10171;DHT22;5127;50.922;6.988;2024-02-16T02:20:43;15.80;79.00
10171;DHT22;5127;50.922;6.988;2024-02-16T02:23:11;15.90;79.20
10171;DHT22;5127;50.922;6.988;2024-02-16T02:25:39;15.90;78.90
10171;DHT22;5127;50.922;6.988;2024-02-16T02:28:06;15.90;79.10
10171;DHT22;5127;50.922;6.988;2024-02-16T02:30:34;15.90;79.20
10171;DHT22;5127;50.922;6.988;2024-02-16T02:33:01;15.90;79.20
10171;DHT22;5127;50.922;6.988;2024-02-16T02:35:28;15.90;79.10
10171;DHT22;5127;50.922;6.988;2024-02-16T02:37:55;15.90;79.00
10171;DHT22;5127;50.922;6.988;2024-02-16T02:40:23;15.90;79.00
10171;DHT22;5127;50.922;6.988;2024-02-16T02:42:51;15.90;78.70
10171;DHT22;5127;50.922;6.988;2024-02-16T02:45:19;15.90;79.10
10171;DHT22;5127;50.922;6.988;2024-02-16T02:47:46;15.90;79.00
10171;DHT22;5127;50.922;6.988;2024-02-16T02:50:14;15.90;79.00
10171;DHT22;5127;50.922;6.988;2024-02-16T02:52:41;15.90;79.10
10171;DHT22;5127;50.922;6.988;2024-02-16T02:55:11;15.90;79.00
10171;DHT22;5127;50.922;6.988;2024-02-16T02:57:40;15.90;79.00
10171;DHT22;5127;50.922;6.988;2024-02-16T03:00:08;15.90;78.80
10171;DHT22;5127;50.922;6.988;2024-02-16T03:02:38;15.90;78.90
10171;DHT22;5127;50.922;6.988;2024-02-16T03:05:07;15.90;79.10
10171;DHT22;5127;50.922;6.988;2024-02-16T03:07:34;15.90;79.20
10171;DHT22;5127;50.922;6.988;2024-02-16T03:10:01;16.00;79.30
10171;DHT22;5127;50.922;6.988;2024-02-16T03:12:29;16.00;79.30
10171;DHT22;5127;50.922;6.988;2024-02-16T03:14:57;16.00;79.30
10171;DHT22;5127;50.922;6.988;2024-02-16T03:17:25;15.90;78.80
10171;DHT22;5127;50.922;6.988;2024-02-16T03:19:52;16.00;79.30
10171;DHT22;5127;50.922;6.988;2024-02-16T03:22:20;15.90;79.10
10171;DHT22;5127;50.922;6.988;2024-02-16T03:24:47;15.90;79.10
10171;DHT22;5127;50.922;6.988;2024-02-16T03:27:15;15.90;79.20
10171;DHT22;5127;50.922;6.988;2024-02-16T03:29:42;15.90;79.10
10171;DHT22;5127;50.922;6.988;2024-02-16T03:32:10;15.90;79.10
10171;DHT22;5127;50.922;6.988;2024-02-16T03:34:37;15.90;79.00
10171;DHT22;5127;50.922;6.988;2024-02-16T03:37:05;15.90;79.40
10171;DHT22;5127;50.922;6.988;2024-02-16T03:39:32;15.90;79.30
10171;DHT22;5127;50.922;6.988;2024-02-16T03:41:59;15.90;79.40
10171;DHT22;5127;50.922;6.988;2024-02-16T03:44:26;15.90;79.30
10171;DHT22;5127;50.922;6.988;2024-02-16T03:46:54;15.80;79.10
10171;DHT22;5127;50.922;6.988;2024-02-16T03:49:22;15.80;79.10
10171;DHT22;5127;50.922;6.988;2024-02-16T03:51:49;15.80;79.00
10171;DHT22;5127;50.922;6.988;2024-02-16T03:54:17;15.80;79.40
10171;DHT22;5127;50.922;6.988;2024-02-16T03:56:44;15.80;79.40
10171;DHT22;5127;50.922;6.988;2024-02-16T03:59:12;15.80;79.50
10171;DHT22;5127;50.922;6.988;2024-02-16T04:01:39;15.80;79.60
10171;DHT22;5127;50.922;6.988;2024-02-16T04:04:07;15.80;79.60
10171;DHT22;5127;50.922;6.988;2024-02-16T04:06:36;15.80;80.20
10171;DHT22;5127;50.922;6.988;2024-02-16T04:09:03;15.80;79.30
10171;DHT22;5127;50.922;6.988;2024-02-16T04:11:32;15.80;79.50
10171;DHT22;5127;50.922;6.988;2024-02-16T04:13:59;15.80;79.50
10171;DHT22;5127;50.922;6.988;2024-02-16T04:16:26;15.80;80.20
10171;DHT22;5127;50.922;6.988;2024-02-16T04:18:54;15.70;79.50
10171;DHT22;5127;50.922;6.988;2024-02-16T04:21:21;15.70;79.50
10171;DHT22;5127;50.922;6.988;2024-02-16T04:23:49;15.70;79.70
10171;DHT22;5127;50.922;6.988;2024-02-16T04:26:17;15.70;79.60
10171;DHT22;5127;50.922;6.988;2024-02-16T04:28:44;15.70;79.90
10171;DHT22;5127;50.922;6.988;2024-02-16T04:31:11;15.70;80.00
10171;DHT22;5127;50.922;6.988;2024-02-16T04:33:38;15.70;80.00
10171;DHT22;5127;50.922;6.988;2024-02-16T04:36:07;15.70;80.20
10171;DHT22;5127;50.922;6.988;2024-02-16T04:38:34;15.60;80.10
10171;DHT22;5127;50.922;6.988;2024-02-16T04:41:04;15.60;80.20
10171;DHT22;5127;50.922;6.988;2024-02-16T04:43:32;15.60;79.90
10171;DHT22;5127;50.922;6.988;2024-02-16T04:46:00;15.60;80.30
10171;DHT22;5127;50.922;6.988;2024-02-16T04:48:27;15.60;80.40
10171;DHT22;5127;50.922;6.988;2024-02-16T04:50:54;15.60;80.40
10171;DHT22;5127;50.922;6.988;2024-02-16T04:53:22;15.60;80.40
10171;DHT22;5127;50.922;6.988;2024-02-16T04:55:49;15.60;80.40
10171;DHT22;5127;50.922;6.988;2024-02-16T04:58:18;15.60;80.40
10171;DHT22;5127;50.922;6.988;2024-02-16T05:00:45;15.60;80.30
10171;DHT22;5127;50.922;6.988;2024-02-16T05:03:14;15.50;80.40
10171;DHT22;5127;50.922;6.988;2024-02-16T05:05:41;15.60;80.70
10171;DHT22;5127;50.922;6.988;2024-02-16T05:08:10;15.50;80.60
10171;DHT22;5127;50.922;6.988;2024-02-16T05:10:37;15.50;80.70
10171;DHT22;5127;50.922;6.988;2024-02-16T05:13:04;15.60;80.80
10171;DHT22;5127;50.922;6.988;2024-02-16T05:15:33;15.50;80.90
10171;DHT22;5127;50.922;6.988;2024-02-16T05:18:00;15.50;80.70
10171;DHT22;5127;50.922;6.988;2024-02-16T05:20:27;15.50;80.90
10171;DHT22;5127;50.922;6.988;2024-02-16T05:22:55;15.60;81.00
10171;DHT22;5127;50.922;6.988;2024-02-16T05:25:22;15.60;80.90
10171;DHT22;5127;50.922;6.988;2024-02-16T05:27:49;15.60;80.90
10171;DHT22;5127;50.922;6.988;2024-02-16T05:30:17;15.70;81.00
10171;DHT22;5127;50.922;6.988;2024-02-16T05:32:46;15.60;81.00
10171;DHT22;5127;50.922;6.988;2024-02-16T05:35:15;15.60;80.80
10171;DHT22;5127;50.922;6.988;2024-02-16T05:37:43;15.70;81.00
10171;DHT22;5127;50.922;6.988;2024-02-16T05:40:11;15.60;80.90
10171;DHT22;5127;50.922;6.988;2024-02-16T05:42:48;15.60;80.90
10171;DHT22;5127;50.922;6.988;2024-02-16T05:45:15;15.60;80.90
10171;DHT22;5127;50.922;6.988;2024-02-16T05:47:43;15.60;81.00
10171;DHT22;5127;50.922;6.988;2024-02-16T05:50:13;15.60;81.00
10171;DHT22;5127;50.922;6.988;2024-02-16T05:52:41;15.60;80.80
10171;DHT22;5127;50.922;6.988;2024-02-16T05:55:09;15.60;81.10
10171;DHT22;5127;50.922;6.988;2024-02-16T05:57:37;15.60;81.00
10171;DHT22;5127;50.922;6.988;2024-02-16T06:00:06;15.60;81.10
10171;DHT22;5127;50.922;6.988;2024-02-16T06:02:34;15.60;80.90
10171;DHT22;5127;50.922;6.988;2024-02-16T06:05:02;15.60;81.00
10171;DHT22;5127;50.922;6.988;2024-02-16T06:07:32;15.60;80.90
10171;DHT22;5127;50.922;6.988;2024-02-16T06:09:59;15.60;80.70
10171;DHT22;5127;50.922;6.988;2024-02-16T06:12:30;15.60;80.80
10171;DHT22;5127;50.922;6.988;2024-02-16T06:14:57;15.60;80.90
10171;DHT22;5127;50.922;6.988;2024-02-16T06:17:25;15.60;80.80
10171;DHT22;5127;50.922;6.988;2024-02-16T06:19:52;15.60;80.80
10171;DHT22;5127;50.922;6.988;2024-02-16T06:22:19;15.60;80.80
10171;DHT22;5127;50.922;6.988;2024-02-16T06:24:48;15.50;80.70
10171;DHT22;5127;50.922;6.988;2024-02-16T06:27:15;15.50;80.40
10171;DHT22;5127;50.922;6.988;2024-02-16T06:29:42;15.50;80.60
10171;DHT22;5127;50.922;6.988;2024-02-16T06:32:10;15.50;80.60
10171;DHT22;5127;50.922;6.988;2024-02-16T06:34:38;15.50;80.60
10171;DHT22;5127;50.922;6.988;2024-02-16T06:37:06;15.50;80.60
10171;DHT22;5127;50.922;6.988;2024-02-16T06:39:33;15.50;80.70
10171;DHT22;5127;50.922;6.988;2024-02-16T06:42:02;15.50;80.60
10171;DHT22;5127;50.922;6.988;2024-02-16T06:44:30;15.50;80.50
10171;DHT22;5127;50.922;6.988;2024-02-16T06:46:57;15.50;80.90
10171;DHT22;5127;50.922;6.988;2024-02-16T06:49:27;15.50;80.80
10171;DHT22;5127;50.922;6.988;2024-02-16T06:52:01;15.60;80.90
10171;DHT22;5127;50.922;6.988;2024-02-16T06:54:31;15.60;80.70
10171;DHT22;5127;50.922;6.988;2024-02-16T06:56:58;15.60;80.70
10171;DHT22;5127;50.922;6.988;2024-02-16T06:59:31;15.60;81.00
10171;DHT22;5127;50.922;6.988;2024-02-16T07:01:59;15.70;80.40
10171;DHT22;5127;50.922;6.988;2024-02-16T07:04:26;15.80;81.00
10171;DHT22;5127;50.922;6.988;2024-02-16T07:06:54;15.80;81.00
10171;DHT22;5127;50.922;6.988;2024-02-16T07:09:22;15.80;81.00
10171;DHT22;5127;50.922;6.988;2024-02-16T07:11:49;15.80;80.90
10171;DHT22;5127;50.922;6.988;2024-02-16T07:14:18;15.80;80.80
10171;DHT22;5127;50.922;6.988;2024-02-16T07:16:46;15.90;81.00
10171;DHT22;5127;50.922;6.988;2024-02-16T07:19:14;15.90;80.70
10171;DHT22;5127;50.922;6.988;2024-02-16T07:21:41;15.90;80.80
10171;DHT22;5127;50.922;6.988;2024-02-16T07:24:10;16.00;80.90
10171;DHT22;5127;50.922;6.988;2024-02-16T07:26:37;16.00;81.10
10171;DHT22;5127;50.922;6.988;2024-02-16T07:29:04;16.00;80.90
10171;DHT22;5127;50.922;6.988;2024-02-16T07:31:32;16.10;80.90
10171;DHT22;5127;50.922;6.988;2024-02-16T07:34:02;16.20;80.80
10171;DHT22;5127;50.922;6.988;2024-02-16T07:36:30;16.10;80.50
10171;DHT22;5127;50.922;6.988;2024-02-16T07:38:58;16.20;80.80
10171;DHT22;5127;50.922;6.988;2024-02-16T07:41:25;16.20;80.90
10171;DHT22;5127;50.922;6.988;2024-02-16T07:43:56;16.30;81.20
10171;DHT22;5127;50.922;6.988;2024-02-16T07:46:23;16.30;81.10
10171;DHT22;5127;50.922;6.988;2024-02-16T07:48:51;16.30;81.20
10171;DHT22;5127;50.922;6.988;2024-02-16T07:51:19;16.40;81.20
10171;DHT22;5127;50.922;6.988;2024-02-16T07:53:53;16.40;80.70
10171;DHT22;5127;50.922;6.988;2024-02-16T07:56:38;16.40;80.10
10171;DHT22;5127;50.922;6.988;2024-02-16T07:59:18;16.50;80.50
10171;DHT22;5127;50.922;6.988;2024-02-16T08:01:54;16.50;80.40
10171;DHT22;5127;50.922;6.988;2024-02-16T08:04:28;16.50;80.40
10171;DHT22;5127;50.922;6.988;2024-02-16T08:07:00;16.50;80.40
10171;DHT22;5127;50.922;6.988;2024-02-16T08:09:28;16.50;80.00
10171;DHT22;5127;50.922;6.988;2024-02-16T08:11:55;16.60;80.30
10171;DHT22;5127;50.922;6.988;2024-02-16T08:14:22;16.60;80.20
10171;DHT22;5127;50.922;6.988;2024-02-16T08:16:50;16.60;80.50
10171;DHT22;5127;50.922;6.988;2024-02-16T08:19:17;16.60;80.50
10171;DHT22;5127;50.922;6.988;2024-02-16T08:21:44;16.60;80.40
10171;DHT22;5127;50.922;6.988;2024-02-16T08:24:12;16.60;80.10
10171;DHT22;5127;50.922;6.988;2024-02-16T08:26:40;16.60;79.70
10171;DHT22;5127;50.922;6.988;2024-02-16T08:29:07;16.60;80.20
10171;DHT22;5127;50.922;6.988;2024-02-16T08:31:36;16.60;80.20
10171;DHT22;5127;50.922;6.988;2024-02-16T08:34:03;16.60;80.30
10171;DHT22;5127;50.922;6.988;2024-02-16T08:36:33;16.60;80.40
10171;DHT22;5127;50.922;6.988;2024-02-16T08:39:00;16.70;80.50
10171;DHT22;5127;50.922;6.988;2024-02-16T08:41:28;16.70;80.50
10171;DHT22;5127;50.922;6.988;2024-02-16T08:43:56;16.70;80.20
10171;DHT22;5127;50.922;6.988;2024-02-16T08:46:23;16.70;80.60
10171;DHT22;5127;50.922;6.988;2024-02-16T08:48:50;16.80;80.70
10171;DHT22;5127;50.922;6.988;2024-02-16T08:51:17;16.80;80.80
10171;DHT22;5127;50.922;6.988;2024-02-16T08:53:44;16.80;80.60
10171;DHT22;5127;50.922;6.988;2024-02-16T08:56:12;16.90;80.90
10171;DHT22;5127;50.922;6.988;2024-02-16T08:58:40;16.90;80.90
10171;DHT22;5127;50.922;6.988;2024-02-16T09:01:08;17.00;80.60
10171;DHT22;5127;50.922;6.988;2024-02-16T09:03:38;17.00;80.80
10171;DHT22;5127;50.922;6.988;2024-02-16T09:06:06;17.10;80.80
10171;DHT22;5127;50.922;6.988;2024-02-16T09:08:33;17.20;80.60
10171;DHT22;5127;50.922;6.988;2024-02-16T09:11:01;17.20;80.70
10171;DHT22;5127;50.922;6.988;2024-02-16T09:13:31;17.20;80.60
10171;DHT22;5127;50.922;6.988;2024-02-16T09:16:01;17.30;80.60
10171;DHT22;5127;50.922;6.988;2024-02-16T09:18:29;17.30;80.10
10171;DHT22;5127;50.922;6.988;2024-02-16T09:20:56;17.30;80.30
10171;DHT22;5127;50.922;6.988;2024-02-16T09:23:23;17.30;80.00
10171;DHT22;5127;50.922;6.988;2024-02-16T09:25:51;17.50;80.30
10171;DHT22;5127;50.922;6.988;2024-02-16T09:28:18;17.40;80.10
10171;DHT22;5127;50.922;6.988;2024-02-16T09:30:46;17.40;80.20
10171;DHT22;5127;50.922;6.988;2024-02-16T09:33:14;17.50;80.20
10171;DHT22;5127;50.922;6.988;2024-02-16T09:35:41;17.50;79.50
10171;DHT22;5127;50.922;6.988;2024-02-16T09:38:09;17.60;80.20
10171;DHT22;5127;50.922;6.988;2024-02-16T09:40:36;17.50;80.00
10171;DHT22;5127;50.922;6.988;2024-02-16T09:43:04;17.50;79.90
10171;DHT22;5127;50.922;6.988;2024-02-16T09:45:32;17.50;79.80
10171;DHT22;5127;50.922;6.988;2024-02-16T09:48:01;17.50;79.60
10171;DHT22;5127;50.922;6.988;2024-02-16T09:50:30;17.50;79.50
10171;DHT22;5127;50.922;6.988;2024-02-16T09:52:57;17.50;79.70
10171;DHT22;5127;50.922;6.988;2024-02-16T09:55:25;17.40;80.00
10171;DHT22;5127;50.922;6.988;2024-02-16T09:57:58;17.60;80.20
10171;DHT22;5127;50.922;6.988;2024-02-16T10:00:26;17.50;79.10
10171;DHT22;5127;50.922;6.988;2024-02-16T10:02:54;17.50;79.90
10171;DHT22;5127;50.922;6.988;2024-02-16T10:05:21;17.50;79.80
10171;DHT22;5127;50.922;6.988;2024-02-16T10:07:50;17.50;79.60
10171;DHT22;5127;50.922;6.988;2024-02-16T10:10:20;17.50;79.40
10171;DHT22;5127;50.922;6.988;2024-02-16T10:12:48;17.50;79.10
10171;DHT22;5127;50.922;6.988;2024-02-16T10:15:19;17.50;79.80
10171;DHT22;5127;50.922;6.988;2024-02-16T10:17:57;17.50;79.10
10171;DHT22;5127;50.922;6.988;2024-02-16T10:20:24;17.40;78.50
10171;DHT22;5127;50.922;6.988;2024-02-16T10:23:06;17.40;79.60
10171;DHT22;5127;50.922;6.988;2024-02-16T10:25:34;17.50;78.50
10171;DHT22;5127;50.922;6.988;2024-02-16T10:28:06;17.40;79.70
10171;DHT22;5127;50.922;6.988;2024-02-16T10:30:36;17.40;79.20
10171;DHT22;5127;50.922;6.988;2024-02-16T10:33:05;17.40;79.80
10171;DHT22;5127;50.922;6.988;2024-02-16T10:35:34;17.50;80.00
10171;DHT22;5127;50.922;6.988;2024-02-16T10:38:04;17.40;79.80
10171;DHT22;5127;50.922;6.988;2024-02-16T10:40:32;17.50;79.60
10171;DHT22;5127;50.922;6.988;2024-02-16T10:43:03;17.40;80.40
10171;DHT22;5127;50.922;6.988;2024-02-16T10:45:33;17.40;79.70
10171;DHT22;5127;50.922;6.988;2024-02-16T10:48:02;17.40;79.70
10171;DHT22;5127;50.922;6.988;2024-02-16T10:50:31;17.40;80.00
10171;DHT22;5127;50.922;6.988;2024-02-16T10:53:05;17.50;80.10
10171;DHT22;5127;50.922;6.988;2024-02-16T10:55:36;17.40;79.40
10171;DHT22;5127;50.922;6.988;2024-02-16T10:58:06;17.30;80.00
10171;DHT22;5127;50.922;6.988;2024-02-16T11:00:33;17.40;80.20
10171;DHT22;5127;50.922;6.988;2024-02-16T11:03:03;17.40;80.30
10171;DHT22;5127;50.922;6.988;2024-02-16T11:05:34;17.40;79.90
10171;DHT22;5127;50.922;6.988;2024-02-16T11:08:03;17.40;79.80
10171;DHT22;5127;50.922;6.988;2024-02-16T11:10:31;17.30;80.10
10171;DHT22;5127;50.922;6.988;2024-02-16T11:13:02;17.40;80.10
10171;DHT22;5127;50.922;6.988;2024-02-16T11:15:31;17.30;79.70
10171;DHT22;5127;50.922;6.988;2024-02-16T11:18:00;17.30;80.40
10171;DHT22;5127;50.922;6.988;2024-02-16T11:20:28;17.30;80.30
10171;DHT22;5127;50.922;6.988;2024-02-16T11:23:05;17.30;80.60
10171;DHT22;5127;50.922;6.988;2024-02-16T11:25:34;17.30;79.70
10171;DHT22;5127;50.922;6.988;2024-02-16T11:28:02;17.30;80.50
10171;DHT22;5127;50.922;6.988;2024-02-16T11:30:32;17.30;80.90
10171;DHT22;5127;50.922;6.988;2024-02-16T11:33:00;17.30;80.50
10171;DHT22;5127;50.922;6.988;2024-02-16T11:35:27;17.40;81.10
10171;DHT22;5127;50.922;6.988;2024-02-16T11:37:55;17.40;81.10
10171;DHT22;5127;50.922;6.988;2024-02-16T11:40:23;17.40;80.90
10171;DHT22;5127;50.922;6.988;2024-02-16T11:42:58;17.50;81.30
10171;DHT22;5127;50.922;6.988;2024-02-16T11:45:26;17.50;80.40
10171;DHT22;5127;50.922;6.988;2024-02-16T11:48:04;17.50;81.40
10171;DHT22;5127;50.922;6.988;2024-02-16T11:50:31;17.50;80.30
10171;DHT22;5127;50.922;6.988;2024-02-16T11:52:58;17.50;81.60
10171;DHT22;5127;50.922;6.988;2024-02-16T11:55:25;17.60;81.70
10171;DHT22;5127;50.922;6.988;2024-02-16T11:57:53;17.60;81.70
10171;DHT22;5127;50.922;6.988;2024-02-16T12:00:25;17.70;81.80
10171;DHT22;5127;50.922;6.988;2024-02-16T12:02:59;17.80;81.60
10171;DHT22;5127;50.922;6.988;2024-02-16T12:05:27;17.80;81.00
10171;DHT22;5127;50.922;6.988;2024-02-16T12:07:57;17.80;82.00
10171;DHT22;5127;50.922;6.988;2024-02-16T12:10:25;17.80;81.50
10171;DHT22;5127;50.922;6.988;2024-02-16T12:12:53;17.80;81.60
10171;DHT22;5127;50.922;6.988;2024-02-16T12:15:21;17.90;81.70
10171;DHT22;5127;50.922;6.988;2024-02-16T12:17:59;17.80;81.70
10171;DHT22;5127;50.922;6.988;2024-02-16T12:20:29;17.80;80.90
10171;DHT22;5127;50.922;6.988;2024-02-16T12:22:57;17.80;81.70
10171;DHT22;5127;50.922;6.988;2024-02-16T12:25:28;17.80;81.80
10171;DHT22;5127;50.922;6.988;2024-02-16T12:27:55;17.90;81.90
10171;DHT22;5127;50.922;6.988;2024-02-16T12:30:22;17.80;81.90
10171;DHT22;5127;50.922;6.988;2024-02-16T12:32:49;17.80;81.90
10171;DHT22;5127;50.922;6.988;2024-02-16T12:35:18;17.70;81.90
10171;DHT22;5127;50.922;6.988;2024-02-16T12:37:45;17.70;81.80
10171;DHT22;5127;50.922;6.988;2024-02-16T12:40:13;17.70;82.00
10171;DHT22;5127;50.922;6.988;2024-02-16T12:42:41;17.70;82.20
10171;DHT22;5127;50.922;6.988;2024-02-16T12:45:08;17.70;82.30
10171;DHT22;5127;50.922;6.988;2024-02-16T12:47:36;17.70;82.40
10171;DHT22;5127;50.922;6.988;2024-02-16T12:50:04;17.70;82.50
10171;DHT22;5127;50.922;6.988;2024-02-16T12:52:33;17.70;82.60
10171;DHT22;5127;50.922;6.988;2024-02-16T12:55:05;17.60;82.50
10171;DHT22;5127;50.922;6.988;2024-02-16T12:57:32;17.70;82.80
10171;DHT22;5127;50.922;6.988;2024-02-16T13:00:00;17.70;83.10
10171;DHT22;5127;50.922;6.988;2024-02-16T13:02:28;17.70;83.10
10171;DHT22;5127;50.922;6.988;2024-02-16T13:04:56;17.70;83.20
10171;DHT22;5127;50.922;6.988;2024-02-16T13:07:23;17.70;83.20
10171;DHT22;5127;50.922;6.988;2024-02-16T13:09:53;17.70;83.30
10171;DHT22;5127;50.922;6.988;2024-02-16T13:12:20;17.70;83.20
10171;DHT22;5127;50.922;6.988;2024-02-16T13:14:49;17.70;83.50
10171;DHT22;5127;50.922;6.988;2024-02-16T13:17:16;17.70;83.50
10171;DHT22;5127;50.922;6.988;2024-02-16T13:19:44;17.70;83.60
10171;DHT22;5127;50.922;6.988;2024-02-16T13:22:11;17.70;83.60
10171;DHT22;5127;50.922;6.988;2024-02-16T13:24:38;17.60;83.60
10171;DHT22;5127;50.922;6.988;2024-02-16T13:27:07;17.60;83.60
10171;DHT22;5127;50.922;6.988;2024-02-16T13:29:35;17.60;83.70
10171;DHT22;5127;50.922;6.988;2024-02-16T13:32:02;17.60;83.80
10171;DHT22;5127;50.922;6.988;2024-02-16T13:34:29;17.50;83.90
10171;DHT22;5127;50.922;6.988;2024-02-16T13:36:57;17.50;84.00
10171;DHT22;5127;50.922;6.988;2024-02-16T13:39:24;17.50;84.10
10171;DHT22;5127;50.922;6.988;2024-02-16T13:41:53;17.50;84.20
10171;DHT22;5127;50.922;6.988;2024-02-16T13:44:24;17.40;84.10
10171;DHT22;5127;50.922;6.988;2024-02-16T13:46:52;17.40;84.10
10171;DHT22;5127;50.922;6.988;2024-02-16T13:49:20;17.40;84.20
10171;DHT22;5127;50.922;6.988;2024-02-16T13:51:47;17.40;84.30
10171;DHT22;5127;50.922;6.988;2024-02-16T13:54:14;17.30;84.20
10171;DHT22;5127;50.922;6.988;2024-02-16T13:56:41;17.30;84.30
10171;DHT22;5127;50.922;6.988;2024-02-16T13:59:09;17.30;84.40
10171;DHT22;5127;50.922;6.988;2024-02-16T14:01:37;17.30;84.40
10171;DHT22;5127;50.922;6.988;2024-02-16T14:04:04;17.20;84.50
10171;DHT22;5127;50.922;6.988;2024-02-16T14:06:32;17.20;84.80
10171;DHT22;5127;50.922;6.988;2024-02-16T14:08:59;17.30;84.90
10171;DHT22;5127;50.922;6.988;2024-02-16T14:11:27;17.20;84.90
10171;DHT22;5127;50.922;6.988;2024-02-16T14:13:54;17.20;85.10
10171;DHT22;5127;50.922;6.988;2024-02-16T14:16:21;17.20;85.10
10171;DHT22;5127;50.922;6.988;2024-02-16T14:18:50;17.10;85.10
10171;DHT22;5127;50.922;6.988;2024-02-16T14:21:18;17.10;85.20
10171;DHT22;5127;50.922;6.988;2024-02-16T14:23:45;17.10;85.30
10171;DHT22;5127;50.922;6.988;2024-02-16T14:26:12;17.10;85.50
10171;DHT22;5127;50.922;6.988;2024-02-16T14:28:39;17.10;85.60
10171;DHT22;5127;50.922;6.988;2024-02-16T14:31:07;17.00;85.50
10171;DHT22;5127;50.922;6.988;2024-02-16T14:33:34;17.10;85.80
10171;DHT22;5127;50.922;6.988;2024-02-16T14:36:03;17.10;85.90
10171;DHT22;5127;50.922;6.988;2024-02-16T14:38:31;17.10;85.90
10171;DHT22;5127;50.922;6.988;2024-02-16T14:40:59;17.00;86.10
10171;DHT22;5127;50.922;6.988;2024-02-16T14:43:29;17.10;86.20
10171;DHT22;5127;50.922;6.988;2024-02-16T14:45:57;17.10;86.20
10171;DHT22;5127;50.922;6.988;2024-02-16T14:48:24;17.10;86.20
10171;DHT22;5127;50.922;6.988;2024-02-16T14:50:52;17.10;86.20
10171;DHT22;5127;50.922;6.988;2024-02-16T14:53:22;17.10;86.20
10171;DHT22;5127;50.922;6.988;2024-02-16T14:55:49;17.20;86.30
10171;DHT22;5127;50.922;6.988;2024-02-16T14:58:17;17.20;86.30
10171;DHT22;5127;50.922;6.988;2024-02-16T15:00:45;17.20;86.30
10171;DHT22;5127;50.922;6.988;2024-02-16T15:03:13;17.20;86.40
10171;DHT22;5127;50.922;6.988;2024-02-16T15:05:41;17.20;86.40
10171;DHT22;5127;50.922;6.988;2024-02-16T15:08:11;17.20;86.30
10171;DHT22;5127;50.922;6.988;2024-02-16T15:10:40;17.20;86.40
10171;DHT22;5127;50.922;6.988;2024-02-16T15:13:09;17.20;86.40
10171;DHT22;5127;50.922;6.988;2024-02-16T15:15:36;17.10;86.30
10171;DHT22;5127;50.922;6.988;2024-02-16T15:18:04;17.20;86.40
10171;DHT22;5127;50.922;6.988;2024-02-16T15:20:32;17.20;86.40
10171;DHT22;5127;50.922;6.988;2024-02-16T15:22:59;17.20;86.50
10171;DHT22;5127;50.922;6.988;2024-02-16T15:25:26;17.20;86.60
10171;DHT22;5127;50.922;6.988;2024-02-16T15:27:55;17.20;86.70
10171;DHT22;5127;50.922;6.988;2024-02-16T15:30:24;17.20;86.70
10171;DHT22;5127;50.922;6.988;2024-02-16T15:32:52;17.20;86.90
10171;DHT22;5127;50.922;6.988;2024-02-16T15:35:19;17.20;86.90
10171;DHT22;5127;50.922;6.988;2024-02-16T15:37:46;17.20;86.90
10171;DHT22;5127;50.922;6.988;2024-02-16T15:40:14;17.20;87.60
10171;DHT22;5127;50.922;6.988;2024-02-16T15:42:41;17.20;87.00
10171;DHT22;5127;50.922;6.988;2024-02-16T15:45:10;17.20;87.00
10171;DHT22;5127;50.922;6.988;2024-02-16T15:47:38;17.20;87.00
10171;DHT22;5127;50.922;6.988;2024-02-16T15:50:06;17.20;87.00